Time;durP1;ratioP1;P1;durP2;ratioP2;P2;SDS_P1;SDS_P2;PMS_P1;PMS_P2;Temp;Humidity;BMP_temperature;BMP_pressure;BME280_temperature;BME280_humidity;BME280_pressure;Samples;Min_cycle;Max_cycle;Signal;HPM_P1;HPM_P2
2023/06/19 00:02:04;;;;;;;5.40;3.87;;;21.50;99.90;;;;;;7347753;32;20122;-55
2023/06/19 00:06:06;;;;;;;4.50;4.10;;;21.30;99.90;;;;;;7348857;32;20174;-55
2023/06/19 00:10:08;;;;;;;7.03;3.95;;;21.10;99.90;;;;;;7346065;32;20257;-55
2023/06/19 00:14:10;;;;;;;4.60;4.20;;;21.00;99.90;;;;;;7346704;32;20112;-55
2023/06/19 00:18:12;;;;;;;7.10;4.05;;;20.80;99.90;;;;;;7344731;32;20121;-55
2023/06/19 00:22:14;;;;;;;5.90;4.65;;;20.70;99.90;;;;;;7347193;32;20125;-55
2023/06/19 00:26:16;;;;;;;7.28;4.72;;;20.50;99.90;;;;;;7346547;32;20178;-55
2023/06/19 00:30:18;;;;;;;7.28;4.95;;;20.30;99.90;;;;;;7346330;32;20118;-54
2023/06/19 00:34:20;;;;;;;5.05;4.55;;;20.10;99.90;;;;;;7348157;32;20255;-55
2023/06/19 00:38:21;;;;;;;6.22;5.20;;;20.00;99.90;;;;;;7344148;32;20495;-55
2023/06/19 00:42:23;;;;;;;5.30;4.80;;;19.80;99.90;;;;;;7347231;32;20123;-55
2023/06/19 00:46:25;;;;;;;5.90;5.07;;;19.70;99.90;;;;;;7348882;32;20153;-57
2023/06/19 00:50:29;;;;;;;6.37;5.45;;;19.60;99.90;;;;;;7351042;32;20163;-56
2023/06/19 00:54:31;;;;;;;7.78;5.20;;;19.40;99.90;;;;;;7348131;32;20337;-55
2023/06/19 00:58:35;;;;;;;5.60;5.10;;;19.30;99.90;;;;;;7345071;32;20182;-56
2023/06/19 01:02:38;;;;;;;7.85;5.43;;;19.20;99.90;;;;;;7346508;32;20244;-56
2023/06/19 01:07:09;;;;;;;6.25;5.50;;;19.10;99.90;;;;;;7345732;32;20502;-55
2023/06/19 01:11:15;;;;;;;6.62;5.32;;;19.00;99.90;;;;;;7348773;32;20681;-55
2023/06/19 01:15:29;;;;;;;5.78;5.07;;;18.90;99.90;;;;;;7341808;32;20163;-55
2023/06/19 01:19:30;;;;;;;5.05;4.55;;;18.80;99.90;;;;;;7345558;32;20175;-55
2023/06/19 01:23:32;;;;;;;6.75;5.20;;;18.70;99.90;;;;;;7346893;32;20130;-55
2023/06/19 01:27:35;;;;;;;7.78;5.25;;;18.60;99.90;;;;;;7346284;32;20125;-56
2023/06/19 01:31:59;;;;;;;6.30;4.87;;;18.50;99.90;;;;;;7347241;32;20242;-55
2023/06/19 01:36:02;;;;;;;5.78;5.18;;;18.40;99.90;;;;;;7345957;32;20253;-56
2023/06/19 01:40:09;;;;;;;7.55;5.22;;;18.30;99.90;;;;;;7346175;32;20112;-56
2023/06/19 01:44:11;;;;;;;6.90;5.68;;;18.20;99.90;;;;;;7342493;32;20206;-55
2023/06/19 01:48:14;;;;;;;6.30;5.43;;;18.00;99.90;;;;;;7345718;32;20559;-55
2023/06/19 01:52:16;;;;;;;12.37;6.07;;;17.90;99.90;;;;;;7346467;32;20294;-55
2023/06/19 01:56:18;;;;;;;6.45;5.10;;;17.80;99.90;;;;;;7346740;32;20104;-55
2023/06/19 02:00:19;;;;;;;6.20;5.60;;;17.70;99.90;;;;;;7349090;32;20107;-55
2023/06/19 02:04:21;;;;;;;8.55;5.78;;;17.60;99.90;;;;;;7341004;32;20232;-57
2023/06/19 02:08:23;;;;;;;7.37;5.40;;;17.60;99.90;;;;;;7345004;32;20159;-55
2023/06/19 02:12:25;;;;;;;9.20;5.87;;;17.50;99.90;;;;;;7344467;32;20173;-55
2023/06/19 02:16:26;;;;;;;6.60;5.82;;;17.50;99.90;;;;;;7345691;32;20577;-55
2023/06/19 02:20:28;;;;;;;8.93;6.25;;;17.40;99.90;;;;;;7344480;32;20609;-55
2023/06/19 02:24:30;;;;;;;8.77;5.43;;;17.40;99.90;;;;;;7344857;32;20644;-55
2023/06/19 02:28:31;;;;;;;11.43;5.82;;;17.40;99.90;;;;;;7347088;32;20621;-55
2023/06/19 02:32:33;;;;;;;6.57;5.80;;;17.50;99.90;;;;;;7342854;32;20111;-56
2023/06/19 02:36:35;;;;;;;7.60;5.87;;;17.60;99.90;;;;;;7338842;32;20129;-55
2023/06/19 02:40:37;;;;;;;6.43;5.20;;;17.70;99.90;;;;;;7345374;32;20115;-55
2023/06/19 02:44:39;;;;;;;6.22;5.55;;;17.90;99.90;;;;;;7344499;32;20182;-55
2023/06/19 02:48:41;;;;;;;6.45;5.12;;;18.10;99.90;;;;;;7338107;32;20199;-55
2023/06/19 02:52:42;;;;;;;7.15;5.43;;;18.80;99.90;;;;;;7340504;32;20182;-56
2023/06/19 02:56:44;;;;;;;8.57;5.10;;;19.20;99.90;;;;;;7342076;32;20646;-57
2023/06/19 03:00:46;;;;;;;5.78;4.70;;;19.70;99.90;;;;;;7337559;32;20102;-56
2023/06/19 03:04:48;;;;;;;5.07;4.57;;;20.00;99.90;;;;;;7345286;32;20147;-55
2023/06/19 03:08:50;;;;;;;6.65;3.67;;;20.20;99.90;;;;;;7345021;32;20687;-55
2023/06/19 03:12:52;;;;;;;5.78;4.00;;;20.40;99.90;;;;;;7342864;32;20146;-55
2023/06/19 03:16:54;;;;;;;6.43;3.90;;;20.50;99.90;;;;;;7344941;32;20144;-55
2023/06/19 03:20:56;;;;;;;6.15;3.78;;;20.40;99.90;;;;;;7346263;32;20164;-55
2023/06/19 03:24:58;;;;;;;4.40;3.53;;;20.50;99.90;;;;;;7347898;32;20152;-55
2023/06/19 03:28:59;;;;;;;4.40;3.60;;;20.60;99.90;;;;;;7346970;32;20106;-55
2023/06/19 03:33:01;;;;;;;4.30;3.10;;;20.60;99.90;;;;;;7353073;32;20134;-55
2023/06/19 03:37:03;;;;;;;4.35;3.10;;;20.60;99.90;;;;;;7347106;32;20203;-55
2023/06/19 03:41:05;;;;;;;3.58;2.67;;;20.50;99.90;;;;;;7347054;32;20115;-55
2023/06/19 03:45:07;;;;;;;3.72;3.00;;;20.40;99.90;;;;;;7347037;32;20094;-55
2023/06/19 03:49:09;;;;;;;3.58;3.08;;;20.50;99.90;;;;;;7349899;32;20130;-55
2023/06/19 03:53:11;;;;;;;4.03;3.10;;;20.50;99.90;;;;;;7349063;32;20205;-55
2023/06/19 03:57:13;;;;;;;4.50;2.85;;;20.40;99.90;;;;;;7342147;32;20108;-55
2023/06/19 04:01:14;;;;;;;3.05;2.42;;;20.50;99.90;;;;;;7348923;32;20305;-55
2023/06/19 04:05:16;;;;;;;4.70;2.75;;;20.50;99.90;;;;;;7348250;32;20212;-55
2023/06/19 04:09:18;;;;;;;3.83;2.60;;;20.40;99.90;;;;;;7347086;32;20704;-55
2023/06/19 04:13:20;;;;;;;4.50;2.65;;;20.40;99.90;;;;;;7346462;32;20104;-56
2023/06/19 04:17:22;;;;;;;3.00;2.25;;;20.30;99.90;;;;;;7346325;32;21998;-56
2023/06/19 04:21:24;;;;;;;4.55;2.50;;;20.20;99.90;;;;;;7343460;32;20137;-56
2023/06/19 04:25:26;;;;;;;3.50;2.40;;;20.20;99.90;;;;;;7348926;32;20131;-55
2023/06/19 04:29:31;;;;;;;5.93;2.20;;;20.30;99.90;;;;;;7346612;32;20283;-55
2023/06/19 04:33:33;;;;;;;4.20;2.65;;;20.10;99.90;;;;;;7350606;32;20183;-56
2023/06/19 04:37:35;;;;;;;3.03;2.62;;;20.10;99.90;;;;;;7350185;32;20136;-55
2023/06/19 04:41:38;;;;;;;3.03;2.35;;;20.10;99.90;;;;;;7350329;32;20146;-57
2023/06/19 04:45:40;;;;;;;3.25;2.40;;;20.10;99.90;;;;;;7351778;32;20137;-57
2023/06/19 04:49:42;;;;;;;3.45;2.28;;;20.20;99.90;;;;;;7344741;32;20302;-56
2023/06/19 04:53:56;;;;;;;4.10;2.58;;;20.10;99.90;;;;;;7346132;32;20115;-56
2023/06/19 04:57:58;;;;;;;3.45;2.85;;;20.10;99.90;;;;;;7346844;32;20103;-55
2023/06/19 05:02:00;;;;;;;6.80;2.40;;;20.00;99.90;;;;;;7343618;32;20546;-55
2023/06/19 05:06:02;;;;;;;3.92;2.97;;;20.00;99.90;;;;;;7348600;32;20563;-56
2023/06/19 05:10:04;;;;;;;4.82;2.70;;;19.90;99.90;;;;;;7345679;32;20170;-56
2023/06/19 05:14:06;;;;;;;4.45;2.28;;;19.90;99.90;;;;;;7340998;32;20194;-56
2023/06/19 05:18:07;;;;;;;3.12;2.30;;;19.90;99.90;;;;;;7342634;32;20486;-56
2023/06/19 05:22:09;;;;;;;4.22;2.55;;;20.00;99.90;;;;;;7345871;32;20107;-56
2023/06/19 05:26:11;;;;;;;4.22;2.37;;;20.10;99.90;;;;;;7342069;32;20659;-56
2023/06/19 05:30:13;;;;;;;4.97;2.78;;;20.00;99.90;;;;;;7345927;32;20115;-58
2023/06/19 05:34:14;;;;;;;4.12;2.55;;;20.10;99.90;;;;;;7349352;32;20953;-56
2023/06/19 05:38:16;;;;;;;4.90;2.65;;;20.10;99.90;;;;;;7344236;32;20608;-56
2023/06/19 05:42:18;;;;;;;2.33;2.03;;;20.10;99.90;;;;;;7338756;32;20129;-55
2023/06/19 05:46:20;;;;;;;3.35;2.10;;;20.30;99.90;;;;;;7352424;32;20229;-56
2023/06/19 05:50:22;;;;;;;3.78;2.00;;;20.30;99.90;;;;;;7347621;32;20214;-56
2023/06/19 05:54:24;;;;;;;3.78;2.50;;;20.40;99.90;;;;;;7348621;32;20790;-56
2023/06/19 05:58:26;;;;;;;4.32;2.50;;;20.50;99.90;;;;;;7350295;32;20336;-55
2023/06/19 06:02:28;;;;;;;3.85;2.35;;;20.60;99.90;;;;;;7347120;32;20186;-55
2023/06/19 06:06:30;;;;;;;3.65;2.50;;;20.70;99.90;;;;;;7348567;32;20137;-56
2023/06/19 06:10:33;;;;;;;4.80;2.53;;;20.70;99.90;;;;;;7342371;32;20206;-55
2023/06/19 06:14:35;;;;;;;2.95;2.05;;;20.70;99.90;;;;;;7352678;32;20099;-55
2023/06/19 06:18:36;;;;;;;4.15;2.28;;;20.70;99.90;;;;;;7358557;32;20130;-56
2023/06/19 06:22:42;;;;;;;4.10;2.53;;;20.70;99.90;;;;;;7353337;32;20130;-55
2023/06/19 06:26:45;;;;;;;4.05;1.92;;;20.80;99.90;;;;;;7345238;32;20106;-58
2023/06/19 06:30:46;;;;;;;5.22;2.15;;;20.80;99.90;;;;;;7338113;32;20265;-56
2023/06/19 06:34:48;;;;;;;6.97;2.55;;;20.90;99.90;;;;;;7347007;32;20223;-55
2023/06/19 06:38:50;;;;;;;3.50;2.03;;;21.00;99.90;;;;;;7343181;32;20104;-56
2023/06/19 06:42:53;;;;;;;4.82;2.58;;;21.10;99.90;;;;;;7349620;32;20228;-55
2023/06/19 06:46:55;;;;;;;5.87;2.40;;;21.20;99.90;;;;;;7345786;32;20174;-55
2023/06/19 06:51:01;;;;;;;3.62;2.37;;;21.10;99.90;;;;;;7348712;32;20112;-55
2023/06/19 06:55:03;;;;;;;4.05;2.30;;;21.10;99.90;;;;;;7349166;32;20123;-56
2023/06/19 06:59:05;;;;;;;3.53;1.92;;;21.10;99.90;;;;;;7345687;32;20133;-56
2023/06/19 07:03:07;;;;;;;2.35;1.95;;;21.10;99.90;;;;;;7348317;32;20146;-55
2023/06/19 07:07:09;;;;;;;2.75;2.10;;;21.00;99.90;;;;;;7343398;32;20104;-64
2023/06/19 07:11:11;;;;;;;3.78;2.50;;;20.90;99.90;;;;;;7345174;32;20675;-65
2023/06/19 07:15:14;;;;;;;3.72;2.00;;;20.90;99.90;;;;;;7349984;32;20406;-64
2023/06/19 07:19:15;;;;;;;4.37;1.83;;;20.80;99.90;;;;;;7348577;32;20142;-66
2023/06/19 07:23:17;;;;;;;2.87;1.55;;;20.70;99.90;;;;;;7346048;32;20107;-64
2023/06/19 07:27:19;;;;;;;3.92;1.87;;;20.70;99.90;;;;;;7351188;32;20570;-65
2023/06/19 07:31:21;;;;;;;2.72;2.10;;;20.80;99.90;;;;;;7345879;32;20387;-63
2023/06/19 07:35:22;;;;;;;3.67;2.10;;;21.00;99.90;;;;;;7338745;32;20614;-66
2023/06/19 07:39:24;;;;;;;4.68;2.08;;;21.20;99.90;;;;;;7344142;32;20594;-64
2023/06/19 07:43:26;;;;;;;5.40;2.20;;;21.30;99.90;;;;;;7348789;32;20150;-66
2023/06/19 07:47:28;;;;;;;5.32;1.92;;;21.40;99.90;;;;;;7338730;32;20115;-65
2023/06/19 07:51:30;;;;;;;4.07;1.80;;;21.40;99.90;;;;;;7347293;32;20126;-64
2023/06/19 07:55:32;;;;;;;3.85;2.00;;;21.10;99.90;;;;;;7347481;32;21216;-64
2023/06/19 07:59:34;;;;;;;5.95;2.10;;;20.80;99.90;;;;;;7343804;32;20123;-66
2023/06/19 08:03:36;;;;;;;2.47;1.87;;;20.50;99.90;;;;;;7346986;32;20106;-66
2023/06/19 08:07:38;;;;;;;4.18;2.08;;;20.50;99.90;;;;;;7346929;32;21988;-64
2023/06/19 08:11:40;;;;;;;6.47;2.15;;;20.60;99.90;;;;;;7350355;32;20107;-64
2023/06/19 08:15:41;;;;;;;5.68;2.00;;;20.80;99.90;;;;;;7351358;32;20186;-64
2023/06/19 08:19:43;;;;;;;2.92;1.80;;;21.20;99.90;;;;;;7350097;32;20524;-66
2023/06/19 08:23:45;;;;;;;4.28;2.08;;;21.50;99.90;;;;;;7354542;32;20170;-67
2023/06/19 08:27:47;;;;;;;3.03;2.12;;;21.80;99.90;;;;;;7359638;32;20103;-65
2023/06/19 08:31:49;;;;;;;2.55;2.28;;;21.90;99.90;;;;;;7350590;32;20740;-56
2023/06/19 08:35:50;;;;;;;2.70;2.37;;;22.10;99.90;;;;;;7348616;32;20689;-57
2023/06/19 08:39:52;;;;;;;5.43;2.50;;;22.40;99.90;;;;;;7343917;32;20147;-57
2023/06/19 08:43:54;;;;;;;4.45;2.53;;;22.60;99.90;;;;;;7347503;32;20657;-56
2023/06/19 08:48:03;;;;;;;6.15;2.80;;;23.00;99.90;;;;;;7341909;32;20158;-57
2023/06/19 08:52:05;;;;;;;3.90;2.20;;;23.10;99.90;;;;;;7358882;32;20152;-57
2023/06/19 08:56:07;;;;;;;4.75;2.83;;;23.00;99.90;;;;;;7345172;32;20175;-56
2023/06/19 09:00:10;;;;;;;3.62;2.42;;;22.90;99.90;;;;;;7340279;32;20214;-56
2023/06/19 09:04:13;;;;;;;5.45;2.50;;;22.70;99.90;;;;;;7352822;32;20123;-56
2023/06/19 09:08:16;;;;;;;4.47;2.30;;;23.10;99.90;;;;;;7350907;32;20881;-56
2023/06/19 09:12:17;;;;;;;6.15;2.40;;;23.50;99.90;;;;;;7338502;32;20242;-56
2023/06/19 09:16:19;;;;;;;5.35;2.35;;;24.30;99.90;;;;;;7343343;32;20115;-56
2023/06/19 09:20:27;;;;;;;3.20;2.20;;;24.70;99.90;;;;;;7344372;32;20144;-57
2023/06/19 09:24:40;;;;;;;7.45;2.33;;;25.00;99.90;;;;;;7342929;32;20610;-56
2023/06/19 09:28:51;;;;;;;5.15;2.17;;;25.10;99.90;;;;;;7341761;32;20197;-57
2023/06/19 09:32:53;;;;;;;4.45;2.28;;;25.40;99.90;;;;;;7345264;32;20560;-57
2023/06/19 09:36:55;;;;;;;6.10;2.40;;;25.40;99.90;;;;;;7344905;32;20218;-61
2023/06/19 09:40:59;;;;;;;4.22;2.37;;;25.30;99.90;;;;;;7341954;32;20119;-57
2023/06/19 09:45:07;;;;;;;5.05;2.70;;;25.20;99.90;;;;;;7343149;32;20568;-57
2023/06/19 09:49:10;;;;;;;3.72;2.30;;;25.50;99.90;;;;;;7348070;32;20111;-58
2023/06/19 09:53:12;;;;;;;7.18;3.12;;;26.00;99.90;;;;;;7345612;32;20130;-57
2023/06/19 09:57:14;;;;;;;3.87;2.80;;;26.50;99.90;;;;;;7345876;32;20111;-57
2023/06/19 10:01:18;;;;;;;5.40;3.00;;;26.70;99.90;;;;;;7347847;32;20540;-57
2023/06/19 10:05:32;;;;;;;6.30;2.58;;;26.10;99.90;;;;;;7340382;32;20107;-56
2023/06/19 10:09:34;;;;;;;5.55;2.87;;;26.10;99.90;;;;;;7342349;32;20128;-57
2023/06/19 10:13:39;;;;;;;8.20;2.83;;;26.00;99.90;;;;;;7341838;32;20125;-57
2023/06/19 10:18:01;;;;;;;5.68;3.12;;;26.90;99.90;;;;;;7341852;32;20127;-55
2023/06/19 10:22:03;;;;;;;6.68;3.15;;;26.70;99.90;;;;;;7342486;32;20202;-56
2023/06/19 10:26:06;;;;;;;6.40;3.08;;;26.00;99.90;;;;;;7348665;32;20200;-56
2023/06/19 10:30:17;;;;;;;5.87;2.72;;;26.00;99.90;;;;;;7337122;32;20535;-56
2023/06/19 10:34:20;;;;;;;3.90;3.10;;;26.10;99.90;;;;;;7339010;32;20111;-55
2023/06/19 10:38:21;;;;;;;4.70;2.78;;;26.20;99.90;;;;;;7339742;32;20297;-56
2023/06/19 10:42:23;;;;;;;6.80;3.10;;;26.60;99.90;;;;;;7340534;32;20213;-57
2023/06/19 10:46:30;;;;;;;4.45;2.60;;;26.60;99.90;;;;;;7345285;32;20244;-56
2023/06/19 10:50:38;;;;;;;4.57;3.00;;;27.30;99.90;;;;;;7343864;32;20239;-56
2023/06/19 10:54:39;;;;;;;6.22;2.90;;;27.30;99.90;;;;;;7348073;32;20115;-56
2023/06/19 10:58:41;;;;;;;6.47;3.65;;;27.70;99.90;;;;;;7340825;32;20195;-56
2023/06/19 11:02:43;;;;;;;5.07;3.10;;;27.70;99.90;;;;;;7344909;32;20209;-56
2023/06/19 11:06:47;;;;;;;5.03;2.90;;;27.30;99.90;;;;;;7341143;32;20095;-57
2023/06/19 11:10:49;;;;;;;3.80;2.97;;;27.50;99.90;;;;;;7339336;32;20483;-57
2023/06/19 11:14:51;;;;;;;3.95;2.72;;;27.60;99.90;;;;;;7338587;32;20553;-56
2023/06/19 11:19:03;;;;;;;3.87;3.12;;;27.80;98.30;;;;;;7343936;32;20160;-57
2023/06/19 11:23:04;;;;;;;6.70;3.40;;;27.60;98.80;;;;;;7343873;32;20134;-56
2023/06/19 11:27:15;;;;;;;6.93;2.78;;;27.20;99.50;;;;;;7342267;32;20116;-56
2023/06/19 11:31:24;;;;;;;4.10;2.90;;;27.10;99.90;;;;;;7319524;32;20631;-56
2023/06/19 11:35:34;;;;;;;5.25;3.12;;;27.50;99.90;;;;;;7330901;32;20182;-56
2023/06/19 11:39:35;;;;;;;5.93;3.20;;;27.40;99.00;;;;;;7341399;32;20170;-58
2023/06/19 11:43:39;;;;;;;6.22;3.10;;;27.50;98.50;;;;;;7340938;32;20565;-57
2023/06/19 11:47:42;;;;;;;4.62;3.37;;;28.00;98.50;;;;;;7346946;32;20107;-57
2023/06/19 11:51:45;;;;;;;7.80;3.47;;;28.70;96.90;;;;;;7350125;32;20098;-56
2023/06/19 11:55:47;;;;;;;8.07;3.50;;;28.40;96.40;;;;;;7354201;32;20122;-58
2023/06/19 11:59:48;;;;;;;6.25;3.75;;;28.80;96.60;;;;;;7349537;32;20131;-57
2023/06/19 12:03:50;;;;;;;6.95;3.50;;;28.70;95.00;;;;;;7346293;32;20217;-56
2023/06/19 12:07:52;;;;;;;5.00;3.22;;;28.90;93.60;;;;;;7345582;32;20114;-57
2023/06/19 12:11:54;;;;;;;4.35;3.40;;;28.80;93.10;;;;;;7350293;32;20171;-57
2023/06/19 12:15:55;;;;;;;5.25;3.40;;;29.10;92.70;;;;;;7350182;32;20108;-57
2023/06/19 12:19:57;;;;;;;5.05;3.20;;;29.50;91.90;;;;;;7347999;32;20116;-57
2023/06/19 12:23:59;;;;;;;5.22;3.33;;;29.80;90.70;;;;;;7348975;32;20939;-57
2023/06/19 12:28:01;;;;;;;6.93;3.40;;;30.40;86.70;;;;;;7348413;32;20226;-57
2023/06/19 12:32:03;;;;;;;4.65;3.60;;;30.00;87.80;;;;;;7349366;32;20104;-58
2023/06/19 12:36:05;;;;;;;6.85;3.80;;;30.00;87.60;;;;;;7350821;32;20107;-57
2023/06/19 12:40:10;;;;;;;5.70;3.37;;;29.50;90.10;;;;;;7345722;32;20122;-56
2023/06/19 12:44:12;;;;;;;4.85;3.42;;;29.10;86.70;;;;;;7342114;32;20253;-57
2023/06/19 12:48:14;;;;;;;5.35;3.78;;;28.60;89.00;;;;;;7341405;32;20872;-56
2023/06/19 12:52:15;;;;;;;10.55;3.92;;;28.30;90.00;;;;;;7341030;32;20389;-56
2023/06/19 12:56:17;;;;;;;5.45;3.40;;;28.10;90.60;;;;;;7353405;32;20130;-57
2023/06/19 13:00:20;;;;;;;8.43;3.97;;;28.10;90.90;;;;;;7344119;32;20220;-57
2023/06/19 13:04:22;;;;;;;6.32;3.72;;;27.90;90.80;;;;;;7344349;32;20249;-56
2023/06/19 13:08:24;;;;;;;6.07;3.78;;;28.40;91.70;;;;;;7344303;32;20206;-56
2023/06/19 13:12:26;;;;;;;4.70;3.42;;;28.90;87.30;;;;;;7331290;32;20098;-57
2023/06/19 13:16:28;;;;;;;4.45;3.65;;;29.50;90.10;;;;;;7345364;32;20678;-57
2023/06/19 13:20:47;;;;;;;5.07;3.62;;;30.10;86.00;;;;;;7346222;32;21071;-56
2023/06/19 13:24:49;;;;;;;4.20;3.70;;;30.10;85.30;;;;;;7345043;32;20305;-54
2023/06/19 13:28:51;;;;;;;6.22;3.37;;;30.30;85.00;;;;;;7345668;32;20545;-57
2023/06/19 13:32:53;;;;;;;5.68;3.37;;;30.10;81.20;;;;;;7346923;32;20320;-57
2023/06/19 13:36:55;;;;;;;6.70;3.92;;;30.10;84.50;;;;;;7347634;32;20095;-56
2023/06/19 13:40:56;;;;;;;5.68;3.78;;;30.20;81.80;;;;;;7340029;32;20171;-57
2023/06/19 13:44:58;;;;;;;4.50;3.62;;;30.40;81.50;;;;;;7344328;32;20186;-57
2023/06/19 13:49:00;;;;;;;4.37;3.50;;;30.20;79.60;;;;;;7351687;32;20103;-56
2023/06/19 13:53:02;;;;;;;4.70;3.60;;;30.20;78.30;;;;;;7345227;32;20095;-55
2023/06/19 13:57:04;;;;;;;4.72;3.85;;;30.00;78.80;;;;;;7344743;32;20300;-56
2023/06/19 14:01:06;;;;;;;4.37;3.35;;;30.00;79.60;;;;;;7339263;32;20272;-56
2023/06/19 14:05:09;;;;;;;3.75;3.35;;;29.70;77.60;;;;;;7336566;32;20179;-56
2023/06/19 14:09:10;;;;;;;8.07;3.50;;;29.80;75.00;;;;;;7347484;32;20190;-56
2023/06/19 14:13:12;;;;;;;4.28;3.28;;;30.20;76.80;;;;;;7348066;32;20141;-56
2023/06/19 14:17:15;;;;;;;5.15;3.50;;;30.50;71.90;;;;;;7339371;32;20194;-57
2023/06/19 14:21:17;;;;;;;3.12;2.80;;;30.50;73.30;;;;;;7343195;32;21381;-56
2023/06/19 14:25:19;;;;;;;3.90;2.53;;;31.10;67.80;;;;;;7345274;32;20295;-57
2023/06/19 14:29:21;;;;;;;3.90;2.97;;;31.60;67.40;;;;;;7338632;32;20317;-57
2023/06/19 14:33:22;;;;;;;4.18;2.65;;;31.40;68.50;;;;;;7345232;32;20236;-56
2023/06/19 14:37:24;;;;;;;3.37;2.80;;;31.60;66.50;;;;;;7343852;32;20306;-56
2023/06/19 14:41:26;;;;;;;4.57;3.30;;;31.80;66.10;;;;;;7341429;32;20190;-57
2023/06/19 14:45:27;;;;;;;5.43;2.97;;;31.70;65.60;;;;;;7343226;32;20210;-57
2023/06/19 14:49:29;;;;;;;4.15;2.58;;;32.00;66.30;;;;;;7338960;32;20143;-56
2023/06/19 14:53:31;;;;;;;2.72;2.40;;;32.10;64.10;;;;;;7343322;32;20189;-57
2023/06/19 14:57:33;;;;;;;5.57;2.97;;;32.60;62.10;;;;;;7340463;32;21293;-56
2023/06/19 15:01:35;;;;;;;3.67;2.45;;;32.60;61.90;;;;;;7339842;32;20317;-57
2023/06/19 15:05:36;;;;;;;3.97;2.75;;;32.80;62.00;;;;;;7339162;32;20129;-56
2023/06/19 15:09:38;;;;;;;4.50;2.83;;;32.20;63.00;;;;;;7347591;32;20104;-56
2023/06/19 15:13:40;;;;;;;4.37;2.37;;;32.10;61.50;;;;;;7343151;32;20216;-56
2023/06/19 15:17:41;;;;;;;2.95;2.25;;;31.50;60.90;;;;;;7338648;32;20617;-56
2023/06/19 15:21:43;;;;;;;2.60;2.40;;;31.50;63.80;;;;;;7335923;32;20166;-57
2023/06/19 15:25:45;;;;;;;2.83;2.53;;;31.10;63.60;;;;;;7341542;32;20269;-57
2023/06/19 15:29:47;;;;;;;4.72;2.65;;;30.50;65.90;;;;;;7344429;32;20836;-57
2023/06/19 15:33:49;;;;;;;3.65;2.80;;;29.90;66.70;;;;;;7343525;32;20547;-56
2023/06/19 15:37:51;;;;;;;3.47;2.65;;;29.40;67.90;;;;;;7342856;32;20198;-56
2023/06/19 15:41:53;;;;;;;3.90;2.55;;;29.20;71.30;;;;;;7344743;32;20643;-56
2023/06/19 15:45:55;;;;;;;3.62;2.58;;;29.00;68.10;;;;;;7344017;32;20381;-57
2023/06/19 15:49:57;;;;;;;5.85;2.50;;;28.80;68.60;;;;;;7346310;32;20100;-56
2023/06/19 15:53:59;;;;;;;6.53;2.80;;;28.70;69.40;;;;;;7342696;32;20165;-56
2023/06/19 15:58:01;;;;;;;6.65;2.85;;;28.60;69.10;;;;;;7339213;32;20229;-56
2023/06/19 16:02:03;;;;;;;2.50;2.00;;;28.20;68.90;;;;;;7339014;32;20183;-56
2023/06/19 16:06:05;;;;;;;4.00;2.70;;;28.00;71.80;;;;;;7343887;32;20137;-57
2023/06/19 16:10:09;;;;;;;6.03;2.53;;;28.00;71.10;;;;;;7342563;32;20099;-56
2023/06/19 16:14:11;;;;;;;3.87;2.30;;;28.10;69.70;;;;;;7341529;32;20100;-56
2023/06/19 16:18:13;;;;;;;6.60;2.70;;;28.00;70.70;;;;;;7345057;32;20302;-56
2023/06/19 16:22:14;;;;;;;4.07;2.53;;;28.00;71.80;;;;;;7348810;32;20238;-56
2023/06/19 16:26:16;;;;;;;3.25;2.17;;;27.80;72.40;;;;;;7350215;32;20485;-57
2023/06/19 16:30:18;;;;;;;4.40;2.67;;;27.90;72.10;;;;;;7347111;32;20107;-56
2023/06/19 16:34:20;;;;;;;4.35;2.90;;;27.90;71.90;;;;;;7348935;32;20123;-56
2023/06/19 16:38:22;;;;;;;3.70;2.50;;;27.80;69.80;;;;;;7349940;32;20099;-56
2023/06/19 16:42:25;;;;;;;3.87;2.58;;;27.70;71.20;;;;;;7354654;32;20580;-57
2023/06/19 16:46:27;;;;;;;4.80;2.47;;;27.60;72.70;;;;;;7351671;32;20119;-56
2023/06/19 16:50:29;;;;;;;3.97;2.40;;;27.70;71.20;;;;;;7353181;32;20531;-56
2023/06/19 16:54:30;;;;;;;3.50;2.45;;;27.70;71.40;;;;;;7349667;32;20134;-56
2023/06/19 16:58:32;;;;;;;4.12;2.72;;;27.60;71.60;;;;;;7349446;32;20115;-57
2023/06/19 17:02:34;;;;;;;4.32;2.60;;;27.50;70.40;;;;;;7354034;32;20191;-57
2023/06/19 17:06:36;;;;;;;4.28;2.40;;;27.40;69.20;;;;;;7350365;32;20138;-57
2023/06/19 17:10:38;;;;;;;3.37;2.37;;;27.30;71.80;;;;;;7347321;32;20139;-57
2023/06/19 17:14:41;;;;;;;5.03;2.35;;;27.20;71.00;;;;;;7345966;32;20111;-57
2023/06/19 17:18:43;;;;;;;4.30;2.50;;;27.20;71.10;;;;;;7344325;32;20127;-57
2023/06/19 17:22:46;;;;;;;5.12;2.60;;;27.20;72.30;;;;;;7337062;32;20194;-57
2023/06/19 17:26:48;;;;;;;3.85;2.70;;;27.00;70.10;;;;;;7346222;32;20172;-56
2023/06/19 17:30:49;;;;;;;3.20;2.28;;;26.70;71.20;;;;;;7344116;32;20183;-56
2023/06/19 17:34:51;;;;;;;3.53;2.12;;;26.90;75.10;;;;;;7346712;32;20162;-56
2023/06/19 17:38:53;;;;;;;3.17;2.45;;;26.80;74.30;;;;;;7344421;32;20190;-57
2023/06/19 17:42:55;;;;;;;5.45;2.80;;;26.70;72.90;;;;;;7346645;32;20273;-56
2023/06/19 17:46:58;;;;;;;4.12;2.40;;;26.50;73.20;;;;;;7344137;32;20229;-56
2023/06/19 17:50:59;;;;;;;3.80;2.50;;;26.40;74.80;;;;;;7348407;32;20103;-55
2023/06/19 17:55:01;;;;;;;5.65;2.40;;;26.20;76.90;;;;;;7350982;32;20326;-56
2023/06/19 17:59:03;;;;;;;3.67;2.50;;;26.20;77.40;;;;;;7346687;32;20137;-56
2023/06/19 18:03:08;;;;;;;4.32;2.40;;;26.20;78.90;;;;;;7342337;32;20122;-55
2023/06/19 18:07:10;;;;;;;3.72;2.62;;;26.10;79.70;;;;;;7339497;32;20127;-56
2023/06/19 18:11:12;;;;;;;4.10;2.62;;;26.00;81.20;;;;;;7350354;32;20201;-56
2023/06/19 18:15:14;;;;;;;4.22;2.67;;;25.60;82.80;;;;;;7350875;32;20572;-58
2023/06/19 18:19:16;;;;;;;5.85;2.90;;;25.60;87.60;;;;;;7346069;32;20106;-57
2023/06/19 18:23:18;;;;;;;5.05;2.80;;;25.30;89.50;;;;;;7347663;32;20103;-55
2023/06/19 18:27:21;;;;;;;4.95;2.50;;;25.10;91.00;;;;;;7345626;32;20111;-55
2023/06/19 18:31:22;;;;;;;6.60;2.95;;;24.80;92.70;;;;;;7341200;32;20131;-56
2023/06/19 18:35:24;;;;;;;6.80;2.50;;;24.70;94.90;;;;;;7347251;32;20578;-56
2023/06/19 18:39:26;;;;;;;4.28;2.87;;;24.70;96.00;;;;;;7348946;32;20573;-54
2023/06/19 18:43:28;;;;;;;4.32;2.67;;;24.40;98.50;;;;;;7333189;32;20218;-54
2023/06/19 18:47:29;;;;;;;9.15;3.25;;;24.10;99.90;;;;;;7343356;32;20457;-55
2023/06/19 18:51:31;;;;;;;4.32;2.85;;;23.90;99.90;;;;;;7341845;32;20216;-56
2023/06/19 18:55:33;;;;;;;3.78;2.72;;;23.80;99.90;;;;;;7347121;32;20253;-55
2023/06/19 18:59:38;;;;;;;6.90;3.00;;;23.60;99.90;;;;;;7338183;32;20159;-55
2023/06/19 19:03:41;;;;;;;4.32;2.60;;;23.40;99.90;;;;;;7347228;32;20157;-55
2023/06/19 19:07:42;;;;;;;5.72;3.08;;;23.30;99.90;;;;;;7344322;32;20130;-55
2023/06/19 19:11:46;;;;;;;4.03;2.60;;;23.10;99.90;;;;;;7345482;32;20165;-55
2023/06/19 19:15:48;;;;;;;5.25;2.85;;;22.80;99.90;;;;;;7351208;32;20111;-56
2023/06/19 19:19:50;;;;;;;4.78;2.90;;;22.60;99.90;;;;;;7340670;32;20524;-57
2023/06/19 19:23:52;;;;;;;5.85;2.80;;;22.30;99.90;;;;;;7344792;32;20107;-57
2023/06/19 19:27:53;;;;;;;5.22;2.70;;;22.20;99.90;;;;;;7343724;32;20132;-58
2023/06/19 19:31:55;;;;;;;6.43;2.83;;;22.10;99.90;;;;;;7341954;32;20104;-58
2023/06/19 19:35:57;;;;;;;5.25;3.20;;;21.90;99.90;;;;;;7345779;32;20151;-59
2023/06/19 19:39:59;;;;;;;4.70;3.08;;;21.70;99.90;;;;;;7347417;32;20274;-57
2023/06/19 19:44:01;;;;;;;6.75;3.22;;;21.40;99.90;;;;;;7347802;32;20138;-57
2023/06/19 19:48:02;;;;;;;6.28;3.47;;;21.30;99.90;;;;;;7348013;32;20118;-57
2023/06/19 19:52:05;;;;;;;6.53;3.17;;;21.10;99.90;;;;;;7342380;32;20113;-57
2023/06/19 19:56:07;;;;;;;7.95;3.55;;;20.90;99.90;;;;;;7349506;32;20189;-58
2023/06/19 20:00:10;;;;;;;10.05;3.12;;;20.80;99.90;;;;;;7347529;32;20253;-56
2023/06/19 20:04:13;;;;;;;4.43;3.00;;;20.70;99.90;;;;;;7342667;32;20259;-56
2023/06/19 20:08:18;;;;;;;3.85;3.00;;;20.60;99.90;;;;;;7343604;32;20612;-55
2023/06/19 20:12:19;;;;;;;5.75;3.37;;;20.50;99.90;;;;;;7351851;32;20177;-55
2023/06/19 20:16:23;;;;;;;4.50;3.05;;;20.50;99.90;;;;;;7355554;32;20150;-56
2023/06/19 20:20:25;;;;;;;7.43;3.58;;;20.30;99.90;;;;;;7350065;32;20198;-55
2023/06/19 20:24:27;;;;;;;4.62;3.20;;;20.20;99.90;;;;;;7350242;32;20271;-55
2023/06/19 20:28:29;;;;;;;5.20;3.00;;;20.10;99.90;;;;;;7349405;32;20137;-56
2023/06/19 20:32:30;;;;;;;5.95;3.55;;;20.00;99.90;;;;;;7342571;32;20932;-55
2023/06/19 20:36:32;;;;;;;8.45;3.85;;;19.90;99.90;;;;;;7346339;32;20095;-55
2023/06/19 20:40:34;;;;;;;6.47;3.37;;;19.80;99.90;;;;;;7346153;32;20099;-55
2023/06/19 20:44:36;;;;;;;8.75;4.62;;;19.80;99.90;;;;;;7347500;32;20320;-54
2023/06/19 20:48:38;;;;;;;6.47;3.92;;;19.70;99.90;;;;;;7346140;32;20119;-56
2023/06/19 20:52:40;;;;;;;5.45;3.47;;;19.70;99.90;;;;;;7344345;32;20700;-55
2023/06/19 20:56:42;;;;;;;5.95;3.60;;;19.60;99.90;;;;;;7335575;32;20587;-55
2023/06/19 21:00:45;;;;;;;6.40;3.60;;;19.60;99.90;;;;;;7345884;32;20186;-54